createdAt,value
2018-06-08T00:00:13.491Z,30.37
2018-06-08T00:02:43.493Z,32.40
2018-06-08T00:05:16.130Z,29.00
2018-06-08T00:07:48.709Z,30.20
2018-06-08T00:10:18.693Z,31.63
2018-06-08T00:12:52.015Z,28.90
2018-06-08T00:15:24.104Z,31.37
2018-06-08T00:17:54.031Z,32.23
2018-06-08T00:20:23.882Z,31.27
2018-06-08T00:22:53.829Z,32.93
2018-06-08T00:28:33.418Z,30.57
2018-06-08T00:31:04.681Z,30.20
2018-06-08T00:33:34.656Z,29.97
2018-06-08T00:36:04.772Z,31.67
2018-06-08T00:38:37.116Z,33.90
2018-06-08T00:44:11.184Z,29.50
2018-06-08T00:46:55.411Z,31.07
2018-06-08T00:49:40.471Z,32.20
2018-06-08T00:52:15.962Z,30.57
2018-06-08T01:01:05.407Z,32.37
2018-06-08T01:03:35.723Z,32.00
2018-06-08T01:06:07.515Z,33.93
2018-06-08T01:08:37.561Z,35.10
2018-06-08T01:11:07.511Z,32.37
2018-06-08T01:13:37.595Z,34.73
2018-06-08T01:16:07.801Z,32.80
2018-06-08T01:18:37.461Z,34.03
2018-06-08T01:21:10.706Z,34.53
2018-06-08T01:23:45.293Z,32.17
2018-06-08T01:26:15.530Z,32.03
2018-06-08T01:28:45.391Z,32.63
2018-06-08T01:31:15.300Z,36.13
2018-06-08T01:33:45.177Z,32.87
2018-06-08T01:36:17.079Z,30.37
2018-06-08T01:45:35.954Z,33.57
2018-06-08T01:51:15.747Z,36.57
2018-06-08T01:53:45.658Z,37.20
2018-06-08T01:56:20.988Z,37.63
2018-06-08T02:01:35.629Z,36.97
2018-06-08T02:04:07.280Z,35.73
2018-06-08T02:06:38.618Z,36.37
2018-06-08T02:09:09.167Z,36.47
2018-06-08T02:11:39.110Z,36.43
2018-06-08T02:14:12.694Z,34.67
2018-06-08T02:16:49.334Z,32.93
2018-06-08T02:19:19.450Z,34.80
2018-06-08T02:21:49.500Z,32.50
2018-06-08T02:24:19.531Z,35.70
2018-06-08T02:26:49.603Z,26.70
2018-06-08T02:29:19.717Z,34.23
2018-06-08T02:34:55.669Z,36.07
2018-06-08T02:37:27.198Z,41.70
2018-06-08T02:39:58.741Z,42.93
2018-06-08T02:42:28.838Z,44.77
2018-06-08T02:45:02.418Z,44.90
2018-06-08T02:50:16.699Z,46.73
2018-06-08T02:52:46.511Z,47.23
2018-06-08T02:55:16.498Z,44.93
2018-06-08T02:57:46.315Z,45.63
2018-06-08T03:00:18.209Z,40.50
2018-06-08T03:02:50.111Z,44.07
2018-06-08T03:05:20.178Z,42.90
2018-06-08T03:07:50.070Z,43.50
2018-06-08T03:10:23.260Z,47.77
2018-06-08T03:12:57.058Z,48.37
2018-06-08T03:15:27.402Z,50.30
2018-06-08T03:21:02.950Z,48.00
2018-06-08T03:23:32.671Z,44.03
2018-06-08T03:26:02.668Z,58.97
2018-06-08T03:28:32.746Z,52.67
2018-06-08T03:37:15.460Z,60.77
2018-06-08T03:39:57.774Z,56.10
2018-06-08T03:42:27.631Z,59.50
2018-06-08T03:48:30.831Z,56.73
2018-06-08T03:57:18.716Z,62.27
2018-06-08T03:59:48.748Z,66.30
2018-06-08T04:02:18.931Z,64.67
2018-06-08T04:07:59.007Z,63.33
2018-06-08T04:10:28.859Z,61.30
2018-06-08T04:12:58.699Z,70.13
2018-06-08T04:18:48.695Z,66.87
2018-06-08T04:25:44.921Z,69.00
2018-06-08T04:28:15.680Z,76.53
2018-06-08T04:30:59.067Z,76.30
2018-06-08T04:33:28.988Z,65.70
2018-06-08T04:36:02.411Z,73.23
2018-06-08T04:38:32.446Z,81.67
2018-06-08T04:41:07.361Z,77.80
2018-06-08T04:57:21.960Z,79.60
2018-06-08T04:59:52.387Z,78.20
2018-06-08T05:02:22.379Z,78.77
2018-06-08T05:04:52.415Z,87.77
2018-06-08T05:07:24.434Z,83.13
2018-06-08T05:09:54.561Z,89.00
2018-06-08T05:12:24.667Z,85.47
2018-06-08T05:14:54.470Z,96.03
2018-06-08T05:20:24.824Z,86.23
2018-06-08T05:22:54.952Z,85.40
2018-06-08T05:25:24.799Z,84.13
2018-06-08T05:27:54.732Z,88.40
2018-06-08T05:30:36.853Z,89.07
2018-06-08T05:36:36.583Z,95.03
2018-06-08T05:39:09.528Z,95.43
2018-06-08T05:41:39.335Z,83.77
2018-06-08T05:44:10.694Z,94.63
2018-06-08T05:46:41.079Z,91.30
2018-06-08T05:49:10.984Z,90.63
2018-06-08T05:51:40.908Z,99.13
2018-06-08T05:54:10.815Z,94.10
2018-06-08T06:03:03.237Z,99.23
2018-06-08T06:05:45.356Z,93.43
2018-06-08T06:08:30.641Z,81.70
2018-06-08T06:11:00.575Z,94.67
2018-06-08T06:13:30.448Z,99.67
2018-06-08T06:16:01.713Z,97.93
2018-06-08T06:18:31.549Z,91.37
2018-06-08T06:21:01.761Z,97.70
2018-06-08T06:23:32.085Z,91.70
2018-06-08T06:26:01.953Z,97.73
2018-06-08T06:28:32.718Z,86.47
2018-06-08T06:31:02.623Z,92.93
2018-06-08T06:33:32.370Z,86.37
2018-06-08T06:36:02.219Z,90.80
2018-06-08T06:38:32.187Z,89.37
2018-06-08T06:41:05.865Z,93.23
2018-06-08T06:43:36.403Z,85.27
2018-06-08T06:46:06.849Z,88.50
2018-06-08T06:48:39.060Z,80.87
2018-06-08T06:51:09.088Z,85.27
2018-06-08T06:53:39.332Z,72.67
2018-06-08T06:56:10.133Z,72.67
2018-06-08T06:58:39.886Z,60.87
2018-06-08T07:01:09.622Z,59.00
2018-06-08T07:03:52.643Z,55.33
2018-06-08T07:06:22.613Z,50.57
2018-06-08T07:08:52.609Z,46.93
2018-06-08T07:11:22.674Z,47.37
2018-06-08T07:13:53.388Z,46.60
2018-06-08T07:16:23.301Z,47.10
2018-06-08T07:19:07.180Z,45.33
2018-06-08T07:21:37.194Z,45.50
2018-06-08T07:24:07.097Z,49.27
2018-06-08T07:26:37.221Z,45.10
2018-06-08T07:29:10.207Z,46.27
2018-06-08T07:31:40.338Z,45.53
2018-06-08T07:34:23.231Z,41.00
2018-06-08T07:36:57.496Z,44.80
2018-06-08T07:39:27.514Z,41.70
2018-06-08T07:42:11.239Z,40.57
2018-06-08T07:44:41.416Z,39.43
2018-06-08T07:47:11.248Z,39.77
2018-06-08T07:49:41.000Z,39.37
2018-06-08T07:52:10.864Z,41.67
2018-06-08T07:54:40.684Z,37.07
2018-06-08T07:57:10.508Z,38.07
2018-06-08T07:59:40.595Z,35.30
2018-06-08T08:02:10.351Z,35.93
2018-06-08T08:04:40.521Z,34.70
2018-06-08T08:07:10.649Z,33.00
2018-06-08T08:09:42.666Z,34.30
2018-06-08T08:12:12.863Z,32.93
2018-06-08T08:14:43.702Z,31.37
2018-06-08T08:17:13.629Z,32.43
2018-06-08T08:19:43.672Z,32.60
2018-06-08T08:22:13.654Z,28.73
2018-06-08T08:24:45.198Z,28.73
2018-06-08T08:27:16.327Z,27.67
2018-06-08T08:29:46.384Z,25.90
2018-06-08T08:32:20.493Z,27.60
2018-06-08T08:34:50.365Z,28.03
2018-06-08T08:37:20.563Z,30.27
2018-06-08T08:39:50.370Z,33.10
2018-06-08T08:42:21.103Z,33.20
2018-06-08T08:44:52.403Z,31.03
2018-06-08T08:47:22.351Z,33.07
2018-06-08T08:49:54.733Z,31.77
2018-06-08T08:52:24.467Z,37.10
2018-06-08T08:54:56.181Z,35.40
2018-06-08T08:57:26.803Z,33.40
2018-06-08T08:59:56.596Z,34.30
2018-06-08T09:02:29.714Z,35.33
2018-06-08T09:04:59.568Z,34.00
2018-06-08T09:07:36.539Z,32.83
2018-06-08T09:10:07.672Z,36.20
2018-06-08T09:12:45.714Z,32.93
2018-06-08T09:15:15.643Z,35.03
2018-06-08T09:17:46.354Z,33.97
2018-06-08T09:20:17.912Z,35.63
2018-06-08T09:22:47.668Z,36.43
2018-06-08T09:25:21.747Z,37.87
2018-06-08T09:27:51.523Z,37.33
2018-06-08T09:30:21.305Z,36.23
2018-06-08T09:32:51.021Z,39.43
2018-06-08T09:35:21.994Z,35.10
2018-06-08T09:37:58.806Z,37.20
2018-06-08T09:40:28.770Z,36.83
2018-06-08T09:42:58.468Z,33.70
2018-06-08T09:45:28.291Z,36.80
2018-06-08T09:47:59.112Z,38.00
2018-06-08T09:50:29.777Z,34.73
2018-06-08T09:52:59.690Z,35.17
2018-06-08T09:58:45.684Z,38.43
2018-06-08T10:01:15.456Z,38.23
2018-06-08T10:03:45.306Z,37.20
2018-06-08T10:06:15.104Z,42.20
2018-06-08T10:08:45.449Z,37.77
2018-06-08T10:11:15.380Z,35.73
2018-06-08T10:13:47.771Z,34.77
2018-06-08T10:16:29.850Z,38.40
2018-06-08T10:19:10.739Z,36.23
2018-06-08T10:22:12.624Z,36.43
2018-06-08T10:28:05.208Z,35.10
2018-06-08T10:36:13.390Z,39.93
2018-06-08T10:38:53.225Z,42.60
2018-06-08T10:41:33.121Z,42.90
2018-06-08T10:51:57.772Z,43.10
2018-06-08T10:54:29.082Z,45.60
2018-06-08T10:57:00.044Z,44.67
2018-06-08T10:59:40.070Z,46.10
2018-06-08T11:02:25.968Z,41.20
2018-06-08T11:05:02.619Z,43.27
2018-06-08T11:07:59.689Z,45.23
2018-06-08T11:10:30.218Z,43.97
2018-06-08T11:13:08.827Z,47.37
2018-06-08T11:18:25.904Z,49.70
2018-06-08T11:20:55.911Z,50.47
2018-06-08T11:23:26.708Z,49.97
2018-06-08T11:25:56.924Z,50.97
2018-06-08T11:28:29.282Z,51.30
2018-06-08T11:30:58.113Z,46.80
2018-06-08T11:33:27.983Z,51.60
2018-06-08T11:35:57.920Z,50.63
2018-06-08T11:38:27.895Z,53.73
2018-06-08T11:41:00.708Z,54.50
2018-06-08T11:43:39.561Z,56.43
2018-06-08T11:46:10.447Z,55.83
2018-06-08T11:48:40.331Z,63.33
2018-06-08T11:51:11.335Z,58.90
2018-06-08T11:53:42.593Z,61.87
2018-06-08T12:01:28.098Z,62.87
2018-06-08T12:04:03.459Z,66.00
2018-06-08T12:06:38.099Z,71.53
2018-06-08T12:09:10.078Z,77.07
2018-06-08T12:11:40.188Z,75.60
2018-06-08T12:14:10.243Z,71.00
2018-06-08T12:16:40.730Z,64.17
2018-06-08T12:19:10.769Z,62.43
2018-06-08T12:21:40.879Z,62.23
2018-06-08T12:24:10.853Z,64.73
2018-06-08T12:26:40.622Z,64.03
2018-06-08T12:29:10.859Z,65.23
2018-06-08T12:31:47.057Z,61.40
2018-06-08T12:34:17.413Z,58.43
2018-06-08T12:42:16.424Z,57.33
2018-06-08T12:44:50.463Z,60.50
2018-06-08T12:47:21.178Z,54.70
2018-06-08T12:49:50.912Z,54.87
2018-06-08T12:52:20.791Z,52.13
2018-06-08T12:54:50.883Z,54.37
2018-06-08T12:57:20.791Z,52.90
2018-06-08T12:59:51.498Z,49.83
2018-06-08T13:02:21.620Z,47.03
2018-06-08T13:04:51.844Z,48.73
2018-06-08T13:07:21.789Z,48.63
2018-06-08T13:09:51.810Z,45.67
2018-06-08T13:12:21.815Z,42.57
2018-06-08T13:14:51.828Z,44.70
2018-06-08T13:17:22.493Z,46.90
2018-06-08T13:19:52.530Z,47.07
2018-06-08T13:22:24.506Z,48.63
2018-06-08T13:25:05.367Z,48.10
2018-06-08T13:27:42.216Z,44.47
2018-06-08T13:30:19.927Z,42.93
2018-06-08T13:32:50.260Z,41.47
2018-06-08T13:35:20.437Z,43.63
2018-06-08T13:37:50.421Z,44.10
2018-06-08T13:40:29.368Z,42.27
2018-06-08T13:43:06.887Z,44.63
2018-06-08T13:45:39.849Z,42.57
2018-06-08T13:48:09.654Z,40.90
2018-06-08T13:50:40.763Z,38.97
2018-06-08T13:53:10.765Z,39.17
2018-06-08T13:55:40.978Z,35.67
2018-06-08T13:58:10.872Z,36.67
2018-06-08T14:00:40.843Z,35.67
2018-06-08T14:03:10.683Z,32.17
2018-06-08T14:05:40.519Z,31.60
2018-06-08T14:08:10.383Z,30.80
2018-06-08T14:10:40.130Z,32.10
2018-06-08T14:13:09.915Z,30.53
2018-06-08T14:15:39.722Z,32.37
2018-06-08T14:18:09.784Z,24.97
2018-06-08T14:20:39.667Z,22.27
2018-06-08T14:23:09.825Z,19.33
2018-06-08T14:25:39.747Z,19.80
2018-06-08T14:28:09.844Z,20.47
2018-06-08T14:30:39.850Z,22.20
2018-06-08T14:33:09.943Z,21.50
2018-06-08T14:35:40.155Z,20.20
2018-06-08T14:38:10.154Z,22.17
2018-06-08T14:40:40.367Z,25.30
2018-06-08T14:43:11.208Z,25.07
2018-06-08T14:45:41.615Z,22.87
2018-06-08T14:48:12.055Z,23.63
2018-06-08T14:50:41.818Z,23.43
2018-06-08T14:53:16.028Z,23.80
2018-06-08T14:55:45.965Z,24.27
2018-06-08T14:58:18.671Z,22.07
2018-06-08T15:00:51.555Z,25.70
2018-06-08T15:03:29.707Z,23.60
2018-06-08T15:06:03.700Z,22.17
2018-06-08T15:08:33.768Z,22.77
2018-06-08T15:11:06.327Z,22.77
2018-06-08T15:14:02.752Z,19.90
2018-06-08T15:16:32.862Z,19.70
2018-06-08T15:19:03.301Z,20.93
2018-06-08T15:21:34.135Z,24.90
2018-06-08T15:24:04.603Z,25.20
2018-06-08T15:26:36.128Z,24.83
2018-06-08T15:29:07.016Z,23.00
2018-06-08T15:31:37.281Z,22.50
2018-06-08T15:34:09.741Z,23.17
2018-06-08T15:36:39.434Z,24.07
2018-06-08T15:39:09.324Z,26.20
2018-06-08T15:41:38.962Z,26.93
2018-06-08T15:44:08.656Z,24.93
2018-06-08T15:46:44.051Z,25.97
2018-06-08T15:49:14.123Z,28.60
2018-06-08T15:51:44.107Z,32.10
2018-06-08T15:54:15.972Z,29.20
2018-06-08T15:56:46.083Z,29.23
2018-06-08T15:59:17.537Z,29.30
2018-06-08T16:02:03.870Z,26.97
2018-06-08T16:04:34.481Z,27.20
2018-06-08T16:07:04.988Z,28.47
2018-06-08T16:09:35.042Z,27.70
2018-06-08T16:12:05.151Z,26.60
2018-06-08T16:14:35.210Z,29.70
2018-06-08T16:17:05.504Z,29.47
2018-06-08T16:19:35.399Z,32.27
2018-06-08T16:22:05.526Z,29.97
2018-06-08T16:24:35.188Z,33.67
2018-06-08T16:27:05.648Z,36.00
2018-06-08T16:29:35.695Z,34.03
2018-06-08T16:32:05.874Z,30.63
2018-06-08T16:34:36.481Z,32.47
2018-06-08T16:37:06.488Z,34.43
2018-06-08T16:39:36.598Z,34.87
2018-06-08T16:42:06.825Z,35.27
2018-06-08T16:44:36.744Z,34.83
2018-06-08T16:47:06.847Z,36.40
2018-06-08T16:49:57.054Z,38.67
2018-06-08T16:52:27.760Z,36.53
2018-06-08T16:54:57.921Z,37.90
2018-06-08T16:57:28.327Z,38.10
2018-06-08T16:59:59.014Z,38.53
2018-06-08T17:02:30.048Z,38.60
2018-06-08T17:05:00.351Z,40.07
2018-06-08T17:07:30.671Z,42.27
2018-06-08T17:10:01.357Z,41.17
2018-06-08T17:12:32.927Z,43.80
2018-06-08T17:15:03.325Z,44.53
2018-06-08T17:17:34.876Z,44.27
2018-06-08T17:20:05.510Z,43.40
2018-06-08T17:22:36.322Z,44.00
2018-06-08T17:25:06.992Z,45.57
2018-06-08T17:27:37.177Z,47.23
2018-06-08T17:30:08.167Z,47.23
2018-06-08T17:32:42.060Z,45.73
2018-06-08T17:35:13.565Z,45.50
2018-06-08T17:37:44.104Z,42.70
2018-06-08T17:40:14.195Z,51.27
2018-06-08T17:42:44.645Z,51.40
2018-06-08T17:45:14.703Z,51.53
2018-06-08T17:47:44.797Z,51.27
2018-06-08T17:50:15.232Z,53.40
2018-06-08T17:52:45.087Z,49.90
2018-06-08T17:55:17.851Z,51.13
2018-06-08T17:57:48.005Z,46.83
2018-06-08T18:00:18.019Z,50.23
2018-06-08T18:02:48.067Z,48.83
2018-06-08T18:05:17.776Z,49.17
2018-06-08T18:07:47.444Z,46.63
2018-06-08T18:10:17.518Z,47.00
2018-06-08T18:12:47.214Z,47.30
2018-06-08T18:15:16.889Z,48.47
2018-06-08T18:17:46.701Z,47.50
2018-06-08T18:20:16.947Z,42.23
2018-06-08T18:22:47.288Z,45.10
2018-06-08T18:25:17.597Z,46.73
2018-06-08T18:27:47.740Z,45.50
2018-06-08T18:30:18.145Z,46.20
2018-06-08T18:32:49.652Z,45.47
2018-06-08T18:35:21.549Z,46.43
2018-06-08T18:37:51.985Z,43.17
2018-06-08T18:40:23.393Z,43.30
2018-06-08T18:42:55.567Z,45.03
2018-06-08T18:45:31.650Z,46.10
2018-06-08T18:48:08.368Z,42.47
2018-06-08T18:50:41.704Z,42.73
2018-06-08T18:53:14.126Z,42.50
2018-06-08T18:55:44.291Z,43.03
2018-06-08T18:58:14.362Z,43.77
2018-06-08T19:00:44.296Z,42.20
2018-06-08T19:03:15.722Z,43.57
2018-06-08T19:05:45.650Z,42.47
2018-06-08T19:08:15.663Z,43.50
2018-06-08T19:10:45.438Z,43.03
2018-06-08T19:13:15.343Z,40.83
2018-06-08T19:15:45.152Z,39.93
2018-06-08T19:18:15.778Z,42.87
2018-06-08T19:20:45.674Z,42.97
2018-06-08T19:23:15.694Z,41.37
2018-06-08T19:25:45.494Z,43.47
2018-06-08T19:28:15.540Z,44.67
2018-06-08T19:30:45.829Z,45.63
2018-06-08T19:33:15.875Z,45.57
2018-06-08T19:35:45.982Z,48.30
2018-06-08T19:38:16.151Z,45.13
2018-06-08T19:40:46.200Z,48.40
2018-06-08T19:43:15.973Z,48.33
2018-06-08T19:45:48.561Z,47.87
2018-06-08T19:48:19.350Z,45.33
2018-06-08T19:50:49.807Z,49.73
2018-06-08T19:53:19.670Z,51.73
2018-06-08T19:55:49.876Z,48.40
2018-06-08T19:58:21.257Z,47.00
2018-06-08T20:00:51.162Z,49.50
2018-06-08T20:03:20.935Z,49.33
2018-06-08T20:05:50.774Z,52.00
2018-06-08T20:08:20.659Z,50.83
2018-06-08T20:10:50.494Z,48.37
2018-06-08T20:13:20.364Z,50.90
2018-06-08T20:15:51.090Z,55.10
2018-06-08T20:18:22.256Z,50.70
2018-06-08T20:23:46.108Z,53.43
2018-06-08T20:26:16.518Z,51.80
2018-06-08T20:28:59.907Z,47.27
2018-06-08T20:34:31.647Z,58.07
2018-06-08T20:37:01.724Z,54.30
2018-06-08T20:39:32.814Z,55.97
2018-06-08T20:42:30.823Z,56.77
2018-06-08T20:50:48.757Z,60.23
2018-06-08T20:53:29.809Z,56.00
2018-06-08T20:56:09.678Z,55.00
2018-06-08T21:03:43.385Z,53.50
2018-06-08T21:06:26.520Z,54.17
2018-06-08T21:09:08.935Z,56.83
2018-06-08T21:11:39.128Z,55.63
2018-06-08T21:14:09.083Z,58.30
2018-06-08T21:16:39.468Z,57.63
2018-06-08T21:19:10.531Z,57.00
2018-06-08T21:21:40.784Z,58.30
2018-06-08T21:24:10.815Z,58.07
2018-06-08T21:26:40.747Z,56.93
2018-06-08T21:29:12.033Z,58.33
2018-06-08T21:31:42.169Z,58.63
2018-06-08T21:34:12.243Z,59.43
2018-06-08T21:36:45.476Z,60.13
2018-06-08T21:39:15.249Z,56.87
2018-06-08T21:41:45.239Z,60.57
2018-06-08T21:44:15.901Z,59.87
2018-06-08T21:46:45.745Z,57.90
2018-06-08T21:49:16.491Z,59.93
2018-06-08T21:51:46.994Z,58.00
2018-06-08T21:54:16.819Z,62.43
2018-06-08T21:56:46.719Z,59.60
2018-06-08T21:59:16.626Z,61.57
2018-06-08T22:01:46.613Z,60.30
2018-06-08T22:04:16.447Z,58.33
2018-06-08T22:06:46.223Z,63.50
2018-06-08T22:09:18.863Z,61.03
2018-06-08T22:11:48.833Z,61.47
2018-06-08T22:14:18.793Z,63.83
2018-06-08T22:16:48.807Z,61.40
2018-06-08T22:19:19.648Z,61.20
2018-06-08T22:22:12.860Z,62.87
2018-06-08T22:24:42.812Z,58.10
2018-06-08T22:27:12.851Z,64.03
2018-06-08T22:29:43.044Z,61.63
2018-06-08T22:32:13.743Z,61.13
2018-06-08T22:34:43.776Z,59.83
2018-06-08T22:37:13.907Z,57.90
2018-06-08T22:39:44.111Z,58.73
2018-06-08T22:42:15.400Z,66.27
2018-06-08T22:44:45.290Z,62.40
2018-06-08T22:47:15.587Z,68.23
2018-06-08T22:49:45.466Z,64.10
2018-06-08T22:52:15.364Z,61.30
2018-06-08T22:54:45.187Z,66.43
2018-06-08T22:57:14.940Z,64.57
2018-06-08T22:59:45.083Z,65.60
2018-06-08T23:02:15.192Z,61.83
2018-06-08T23:04:45.770Z,73.20
2018-06-08T23:07:16.220Z,70.27
2018-06-08T23:09:46.409Z,64.50
2018-06-08T23:12:16.287Z,60.33
2018-06-08T23:14:46.201Z,61.07
2018-06-08T23:17:16.396Z,66.80
2018-06-08T23:19:46.304Z,68.40
2018-06-08T23:22:16.212Z,70.83
2018-06-08T23:24:45.967Z,67.90
2018-06-08T23:27:15.769Z,64.57
2018-06-08T23:29:45.658Z,66.17
2018-06-08T23:32:15.421Z,68.03
2018-06-08T23:34:46.011Z,58.83
2018-06-08T23:37:16.606Z,65.50
2018-06-08T23:39:47.399Z,63.40
2018-06-08T23:42:17.976Z,66.23
2018-06-08T23:44:47.920Z,62.43
2018-06-08T23:47:17.832Z,62.43
2018-06-08T23:49:48.585Z,67.43
2018-06-08T23:52:19.144Z,66.00
2018-06-08T23:54:49.113Z,66.97
2018-06-08T23:57:19.075Z,70.87
2018-06-08T23:59:49.051Z,71.53
